Patcona II — WDC2170 — position and weather

sailwx.info

Track history (hours):
 
Tides and Currents Weather Stations Pressure Air Temp Water Temp Dewpoint Dewpoint Depression Visibility Wind Speed Wind Dir Waves Ship Positions

Patcona II

Owner: Connolly-Pacific Co, long beach, CA. More information available from US FCC via Universal Licensing System and Coast Guard Vessel Documentation Center.

Last reported at 2015-May-27 23:33 UTC. Time now 2015-May-28 00:01 UTC.
Position N 33°46' W 118°13'.

; draft 9 m.

Type: Towing. MMSI: 366988960.

Date/timePositionNaut miles runAvg speedWind from/ knotsBaromVisibWave heightAir tempDewpointWater temp
2015-May-27 23:33N 33°46' W 118°13'12021081776.4
2015-May-27 23:33N 29°44' W 095°09'12021203.6
2015-May-27 22:34N 33°46' W 118°13'1200864073.0
2015-May-27 22:33N 29°45' W 095°11'12001201.4
2015-May-27 21:33N 33°46' W 118°13'12002160182.4
2015-May-27 21:33N 29°45' W 095°11'12001201.1
2015-May-27 20:34N 33°46' W 118°13'1200864073.0
2015-May-27 20:33N 29°45' W 095°11'12001201.4
2015-May-27 19:33N 33°46' W 118°13'12001440121.6
2015-May-27 19:33N 29°45' W 095°11'12001201.1
2015-May-27 18:33N 33°46' W 118°13'12001080091.2
2015-May-27 18:33N 29°45' W 095°11'12001201.4
2015-May-27 17:33N 33°46' W 118°13'12001440121.6
2015-May-27 17:33N 29°45' W 095°11'12001201.4
2015-May-27 16:34N 33°46' W 118°13'12001080091.2
2015-May-27 16:33N 29°45' W 095°11'12001201.4
2015-May-27 15:34N 33°46' W 118°13'12021081951.3
2015-May-27 15:33N 29°44' W 095°08'12021203.2
2015-May-27 14:33N 33°46' W 118°13'1203309427.6
2015-May-27 14:33N 29°47' W 095°06'0 0.0
2015-May-27 13:34N 29°47' W 095°06'1203393825.9
2015-May-27 13:33N 33°46' W 118°13'0 0.0
2015-May-27 12:33N 33°46' W 118°13'12036674.8
2015-May-27 12:23N 29°47' W 095°06'12031463.0
2015-May-27 11:33N 33°46' W 118°13'120343319.7
2015-May-27 11:32N 29°47' W 095°06'12031237.7
2015-May-27 10:33N 33°46' W 118°13'120315471.3
2015-May-27 10:29N 29°47' W 095°06'12031293.1
2015-May-27 09:33N 33°46' W 118°13'120361887.8
2015-May-27 09:32N 29°46' W 095°06'12031241.3
2015-May-27 08:33N 33°46' W 118°13'120436122.7
2015-May-27 08:31N 29°45' W 095°06'12041246.0
2015-May-27 07:34N 33°46' W 118°13'120435824.4
2015-May-27 07:31N 29°45' W 095°06'12041245.6
2015-May-27 06:33N 33°46' W 118°13'120435824.2
2015-May-27 06:31N 29°45' W 095°06'12041242.8
2015-May-27 05:33N 33°46' W 118°13'120439051.5
2015-May-27 05:31N 29°45' W 095°06'12041235.3
2015-May-27 04:33N 33°46' W 118°13'120415762.7
2015-May-27 04:28N 29°45' W 095°06'12041315.1
2015-May-27 03:33N 33°46' W 118°13'120435530.4
2015-May-27 03:31N 29°45' W 095°06'12041246.7
2015-May-27 02:34N 33°46' W 118°13'120434677.9
2015-May-27 02:31N 29°45' W 095°06'12041247.4
2015-May-27 01:34N 33°46' W 118°13'120414401.1
2015-May-27 01:28N 29°45' W 095°06'12041313.6
2015-May-27 00:33N 33°46' W 118°13'120434957.6
2015-May-27 00:31N 29°45' W 095°06'12041247.4
2015-May-26 23:34N 33°46' W 118°13'12046528.2
2015-May-26 23:22N 29°45' W 095°06'2 2.1
2015-May-26 22:33N 29°44' W 095°08'12031082488.8
2015-May-26 22:33N 33°46' W 118°13'0 0.0
2015-May-26 21:33N 33°46' W 118°13'0 0.0
2015-May-26 20:34N 33°46' W 118°13'0 0.0
2015-May-26 19:33N 33°46' W 118°13'0 0.0
2015-May-26 18:33N 33°46' W 118°13'0 0.0
2015-May-26 17:33N 33°46' W 118°13'0 0.0
2015-May-26 16:33N 33°46' W 118°13'0 0.0
2015-May-26 15:33N 33°46' W 118°13'0 0.0
2015-May-26 14:33N 33°46' W 118°13'0 0.0
2015-May-26 13:33N 33°46' W 118°13'1202393498.2
2015-May-26 13:33N 29°44' W 095°08'12021202.7
2015-May-26 12:33N 33°46' W 118°13'120328297.7
2015-May-26 12:31N 29°44' W 095°08'12031259.7
2015-May-26 11:33N 33°46' W 118°13'120325771.2
2015-May-26 11:31N 29°44' W 095°08'12031258.2
2015-May-26 10:33N 33°46' W 118°13'120327229.8
2015-May-26 10:31N 29°44' W 095°08'12031261.9
2015-May-26 09:34N 33°46' W 118°13'120326239.7
2015-May-26 09:31N 29°44' W 095°08'12031260.1
2015-May-26 08:33N 33°46' W 118°13'120312405.5
2015-May-26 08:28N 29°44' W 095°08'12031331.8
2015-May-26 07:33N 33°46' W 118°13'120312513.1
2015-May-26 07:28N 29°44' W 095°08'12031314.4
2015-May-26 06:33N 33°46' W 118°13'12038908.5
2015-May-26 06:25N 29°44' W 095°08'12031390.4
2015-May-26 05:33N 33°46' W 118°13'12038835.8
2015-May-26 05:25N 29°44' W 095°08'12031410.7
2015-May-26 04:34N 33°46' W 118°13'120325925.3
2015-May-26 04:31N 29°44' W 095°08'12031260.8
2015-May-26 03:33N 33°46' W 118°13'12034859.2
2015-May-26 03:19N 29°44' W 095°08'12031587.1
2015-May-26 02:33N 33°46' W 118°13'120313199.8
2015-May-26 02:28N 29°44' W 095°08'0 0.0
2015-May-26 01:28N 29°44' W 095°08'120328483.8
2015-May-26 01:25N 33°46' W 118°13'12031395.3
2015-May-26 00:33N 29°44' W 095°08'12035235.5
2015-May-26 00:20N 33°46' W 118°13'0 0.0
2015-May-25 23:33N 33°46' W 118°13'120315361.2
2015-May-25 23:28N 29°47' W 095°06'12031313.5
2015-May-25 22:33N 33°46' W 118°13'120334934.5
2015-May-25 22:31N 29°47' W 095°06'4 4.4
2015-May-25 21:33N 29°45' W 095°11'120026185.4
2015-May-25 21:31N 33°46' W 118°13'11981255.7
2015-May-25 20:33N 29°44' W 095°13'119867393.3
2015-May-25 20:32N 33°46' W 118°13'0 0.0
2015-May-25 19:33N 33°46' W 118°13'12011081232.6
2015-May-25 19:33N 29°44' W 095°09'4 3.6
2015-May-25 18:32N 29°47' W 095°06'1203254816.6
2015-May-25 18:32N 33°46' W 118°13'12031224.8
2015-May-25 17:33N 29°46' W 095°06'120338336.8
2015-May-25 17:31N 33°46' W 118°13'0 0.0
2015-May-25 16:33N 33°46' W 118°13'120384941.0
2015-May-25 16:33N 29°47' W 095°06'12031210.7
2015-May-25 15:33N 33°46' W 118°13'120335801.3
2015-May-25 15:31N 29°47' W 095°06'0 0.0
2015-May-25 14:28N 29°47' W 095°06'1203270748.0
2015-May-25 14:28N 33°46' W 118°13'0 0.0
2015-May-25 13:33N 33°46' W 118°13'120344203.8
2015-May-25 13:31N 29°47' W 095°06'1 0.9
2015-May-25 12:33N 29°46' W 095°05'120462819.6
2015-May-25 12:32N 33°46' W 118°13'12091233.8
2015-May-25 11:34N 29°42' W 095°00'12097367.4
2015-May-25 11:24N 33°46' W 118°13'12151453.4
2015-May-25 10:34N 29°36' W 094°56'12157781.7
2015-May-25 10:24N 33°46' W 118°13'0 0.0
2015-May-25 09:33N 33°46' W 118°13'0 0.0
2015-May-25 08:33N 33°46' W 118°13'122614757.5
2015-May-25 08:28N 29°22' W 094°48'12261340.8
2015-May-25 07:33N 33°46' W 118°13'0 0.0
2015-May-25 06:34N 33°46' W 118°13'0 0.0
2015-May-25 05:33N 33°46' W 118°13'0 0.0
2015-May-25 04:33N 33°46' W 118°13'0 0.0
2015-May-25 03:33N 33°46' W 118°13'0 0.0
2015-May-25 02:33N 33°46' W 118°13'0 0.0
2015-May-25 01:33N 33°46' W 118°13'0 0.0
2015-May-25 00:34N 33°46' W 118°13'0 0.0
2015-May-24 23:33N 33°46' W 118°13'0 0.0
2015-May-24 22:34N 33°46' W 118°13'0 0.0
2015-May-24 21:33N 33°46' W 118°13'0 0.0
2015-May-24 20:33N 33°46' W 118°13'0 0.0
2015-May-24 17:34N 33°46' W 118°13'122612358.5
2015-May-24 17:28N 29°23' W 094°48'12261355.9
2015-May-24 16:33N 33°46' W 118°13'1221169126.5
2015-May-24 16:33N 29°28' W 094°51'7 7.2
2015-May-24 15:33N 29°34' W 094°55'8 7.7
2015-May-24 14:33N 29°41' W 094°59'12115858.9
2015-May-24 14:21N 33°46' W 118°13'12051513.6
2015-May-24 13:33N 29°46' W 095°05'12055393.7
2015-May-24 13:20N 33°46' W 118°13'12051529.0
2015-May-24 12:33N 29°46' W 095°05'12051219.8
2015-May-24 11:33N 33°46' W 118°13'1205166780.0
2015-May-24 11:33N 29°46' W 095°05'0 0.3
2015-May-24 10:33N 29°46' W 095°05'2 1.9
2015-May-24 09:33N 29°45' W 095°06'0 0.0
2015-May-24 08:33N 29°45' W 095°06'120310266.8
2015-May-24 08:26N 33°46' W 118°13'12031363.7
2015-May-24 07:33N 29°45' W 095°06'120328133.7
2015-May-24 07:31N 33°46' W 118°13'12031257.6
2015-May-24 06:33N 29°45' W 095°06'12034792.7
2015-May-24 06:18N 33°46' W 118°13'12031606.4
2015-May-24 05:33N 29°45' W 095°06'12031083143.6
2015-May-24 05:33N 33°46' W 118°13'12031204.8
2015-May-24 04:33N 29°45' W 095°06'12033155.6
2015-May-24 04:11N 33°46' W 118°13'0 0.0
2015-May-24 03:33N 33°46' W 118°13'1203722098.7
2015-May-24 03:33N 29°45' W 095°06'12031205.5
2015-May-24 02:33N 33°46' W 118°13'1203288839.5
2015-May-24 02:33N 29°45' W 095°06'0 0.0
2015-May-24 01:33N 29°45' W 095°06'1203123787.8
2015-May-24 01:33N 33°46' W 118°13'0 0.0
2015-May-24 00:33N 33°46' W 118°13'120376010.3
2015-May-24 00:32N 29°45' W 095°06'12031226.3
2015-May-23 23:34N 33°46' W 118°13'1203160466.4
2015-May-23 23:33N 29°45' W 095°06'12031212.6
2015-May-23 22:34N 33°46' W 118°13'1203722098.7
2015-May-23 22:33N 29°45' W 095°06'12031205.5
2015-May-23 21:34N 33°46' W 118°13'120429675.7
2015-May-23 21:31N 29°45' W 095°06'12041254.4
2015-May-23 20:34N 33°46' W 118°13'1202618297.7
2015-May-23 20:33N 29°44' W 095°08'12021204.6
2015-May-23 19:34N 33°46' W 118°13'1202721381.4
2015-May-23 19:33N 29°44' W 095°08'12021204.3
2015-May-23 18:34N 33°46' W 118°13'1202618326.0
2015-May-23 18:33N 29°44' W 095°08'12021204.3
2015-May-23 17:33N 33°46' W 118°13'1202432828.9
2015-May-23 17:33N 29°44' W 095°08'12021206.0
2015-May-23 16:34N 33°46' W 118°13'1202618324.4
2015-May-23 16:33N 29°44' W 095°08'12021204.6
2015-May-23 15:34N 33°46' W 118°13'1202393479.1
2015-May-23 15:33N 29°44' W 095°08'12021206.0
2015-May-23 14:34N 33°46' W 118°13'1202393479.1
2015-May-23 14:33N 29°44' W 095°08'12021202.6
2015-May-23 13:33N 33°46' W 118°13'12022164135.3
2015-May-23 13:33N 29°44' W 095°08'12021206.3
2015-May-23 12:34N 33°46' W 118°13'1202360689.2
2015-May-23 12:33N 29°44' W 095°08'12021206.0
2015-May-23 11:33N 33°46' W 118°13'1202480919.0
2015-May-23 11:33N 29°44' W 095°08'0 0.0
2015-May-23 10:33N 29°44' W 095°08'120214772.3
2015-May-23 10:28N 33°46' W 118°13'12031312.7
2015-May-23 09:33N 29°44' W 095°07'120313494.6
2015-May-23 09:28N 33°46' W 118°13'0 0.0
2015-May-23 08:33N 33°46' W 118°13'1204393999.5
2015-May-23 08:32N 29°45' W 095°06'12041228.1
2015-May-23 07:34N 33°46' W 118°13'120459369.8
2015-May-23 07:32N 29°45' W 095°06'12041228.5
2015-May-23 06:33N 33°46' W 118°13'120461042.2
2015-May-23 06:32N 29°45' W 095°06'12041228.5
2015-May-23 05:34N 33°46' W 118°13'120459369.8
2015-May-23 05:32N 29°45' W 095°06'12041228.5
2015-May-23 04:33N 33°46' W 118°13'120457786.6
2015-May-23 04:32N 29°45' W 095°06'12041229.5
2015-May-23 03:33N 33°46' W 118°13'120460194.4
2015-May-23 03:32N 29°45' W 095°06'12041229.2
2015-May-23 02:34N 33°46' W 118°13'120457026.2
2015-May-23 02:32N 29°45' W 095°06'12041229.2
2015-May-23 01:33N 33°46' W 118°13'120460194.4
2015-May-23 01:32N 29°45' W 095°06'1 1.1
2015-May-23 00:33N 29°44' W 095°07'12031203.1
2015-May-22 23:33N 33°46' W 118°13'120412862.9
2015-May-22 23:28N 29°45' W 095°06'12041320.4
2015-May-22 22:33N 33°46' W 118°13'12047796.3
2015-May-22 22:24N 29°45' W 095°06'12041433.9
2015-May-22 21:34N 33°46' W 118°13'12045962.6
2015-May-22 21:21N 29°45' W 095°06'12041508.8
2015-May-22 20:34N 33°46' W 118°13'120420840.3
2015-May-22 20:30N 29°45' W 095°06'12041277.6
2015-May-22 19:33N 33°46' W 118°13'1204619122.1
2015-May-22 19:33N 29°45' W 095°06'12041206.5
2015-May-22 18:34N 33°46' W 118°13'1202618313.4
2015-May-22 18:33N 29°44' W 095°08'12021204.6
2015-May-22 17:34N 33°46' W 118°13'1202618313.4
2015-May-22 17:33N 29°44' W 095°08'12021204.6
2015-May-22 16:34N 33°46' W 118°13'0 0.0
2015-May-22 15:34N 33°46' W 118°13'0 0.0
2015-May-22 14:34N 33°46' W 118°13'0 0.0
2015-May-22 13:32N 33°46' W 118°13'0 0.0
2015-May-22 12:31N 33°46' W 118°13'0 0.0
2015-May-22 11:33N 33°46' W 118°13'12024957.8
2015-May-22 11:19N 29°44' W 095°08'12021587.2
2015-May-22 10:33N 33°46' W 118°13'12041444915.8
2015-May-22 10:33N 29°45' W 095°06'0 0.0
2015-May-22 09:33N 29°45' W 095°06'120450404.0
2015-May-22 09:32N 33°46' W 118°13'12041240.6
2015-May-22 08:33N 29°45' W 095°06'120492228.8
2015-May-22 08:32N 33°46' W 118°13'0 0.0
2015-May-22 07:34N 33°46' W 118°13'120467730.7
2015-May-22 07:32N 29°45' W 095°06'1 1.1
2015-May-22 06:33N 29°46' W 095°05'1204255000.7
2015-May-22 06:33N 33°46' W 118°13'0 0.0
2015-May-22 05:33N 33°46' W 118°13'1203196907.1
2015-May-22 05:32N 29°47' W 095°06'12031224.4
2015-May-22 04:33N 33°46' W 118°13'120368761.3
2015-May-22 04:32N 29°47' W 095°06'12031217.9
2015-May-22 03:33N 33°46' W 118°13'120392169.3
2015-May-22 03:32N 29°47' W 095°06'12031225.8
2015-May-22 02:33N 33°46' W 118°13'120364656.1
2015-May-22 02:32N 29°47' W 095°06'12031233.1
2015-May-22 01:33N 33°46' W 118°13'120352828.7
2015-May-22 01:32N 29°47' W 095°06'12031227.9
2015-May-22 00:33N 33°46' W 118°13'120317122.4
2015-May-22 00:29N 29°47' W 095°06'0 0.0
2015-May-21 23:32N 29°47' W 095°06'1203866391.4
2015-May-21 23:32N 33°46' W 118°13'0 0.0
2015-May-21 22:33N 33°46' W 118°13'120356259.4
2015-May-21 22:32N 29°47' W 095°06'12031226.1
2015-May-21 21:33N 33°46' W 118°13'120361885.1
2015-May-21 21:32N 29°47' W 095°06'12031234.2
2015-May-21 20:34N 33°46' W 118°13'120348133.5
2015-May-21 20:32N 29°47' W 095°06'12031230.7
2015-May-21 19:33N 33°46' W 118°13'120316725.8
2015-May-21 19:29N 29°47' W 095°06'12031297.0
2015-May-21 18:33N 33°46' W 118°13'120327074.8
2015-May-21 18:31N 29°47' W 095°06'12031262.6
2015-May-21 17:34N 33°46' W 118°13'12038220.1
2015-May-21 17:25N 29°47' W 095°06'12031405.1
2015-May-21 16:33N 33°46' W 118°13'120321131.4
2015-May-21 16:30N 29°47' W 095°06'12031276.4
2015-May-21 15:33N 33°46' W 118°13'1203149377.4
2015-May-21 15:33N 29°47' W 095°06'0 0.0
2015-May-21 14:30N 29°47' W 095°06'120322562.2
2015-May-21 14:27N 33°46' W 118°13'12031358.0
2015-May-21 13:34N 29°47' W 095°06'0 0.0
2015-May-21 12:33N 29°47' W 095°06'0 0.1
2015-May-21 11:33N 29°47' W 095°06'2 1.8
2015-May-21 10:32N 29°45' W 095°06'12043965.8
2015-May-21 10:14N 33°46' W 118°13'0 0.0
2015-May-21 09:29N 33°46' W 118°13'120434677.4
2015-May-21 09:27N 29°45' W 095°06'0 0.0
2015-May-21 08:33N 29°45' W 095°06'1204160542.9
2015-May-21 08:32N 33°46' W 118°13'0 0.0
2015-May-21 07:33N 33°46' W 118°13'1204288978.8
2015-May-21 07:33N 29°45' W 095°06'12041222.8
2015-May-21 06:34N 33°46' W 118°13'120476046.7
2015-May-21 06:33N 29°45' W 095°06'12041209.8
2015-May-21 05:33N 33°46' W 118°13'1204288977.1
2015-May-21 05:33N 29°45' W 095°06'12041209.1
2015-May-21 04:33N 33°46' W 118°13'1204361221.4
2015-May-21 04:33N 29°45' W 095°06'12041218.6
2015-May-21 03:33N 33°46' W 118°13'120488462.8
2015-May-21 03:33N 29°45' W 095°06'12041223.8
2015-May-21 02:34N 33°46' W 118°13'120473469.1
2015-May-21 02:33N 29°45' W 095°06'0 0.0
2015-May-21 01:33N 29°45' W 095°06'0 0.0
2015-May-21 00:33N 29°45' W 095°06'0 0.0
2015-May-20 23:33N 29°45' W 095°06'1204160544.3
2015-May-20 23:33N 33°46' W 118°13'0 0.0
2015-May-20 22:33N 33°46' W 118°13'12044909.0
2015-May-20 22:18N 29°45' W 095°06'12041595.4
2015-May-20 21:33N 33°46' W 118°13'1204188463.4
2015-May-20 21:32N 29°45' W 095°06'12041212.5
2015-May-20 20:33N 33°46' W 118°13'120434956.9
2015-May-20 20:31N 29°45' W 095°06'12041243.1
2015-May-20 19:33N 33°46' W 118°13'1204333435.3
2015-May-20 19:32N 29°45' W 095°06'0 0.0
2015-May-20 18:33N 29°45' W 095°06'1204139826.5
2015-May-20 18:33N 33°46' W 118°13'12021215.8
2015-May-20 17:33N 29°44' W 095°09'1202105538.4
2015-May-20 17:33N 33°46' W 118°13'11961209.5
2015-May-20 16:33N 29°44' W 095°16'11964304713.4
2015-May-20 16:33N 33°46' W 118°13'0 0.0
2015-May-20 15:34N 33°46' W 118°13'1195204905.7
2015-May-20 15:33N 29°44' W 095°17'0 0.0
2015-May-20 14:33N 29°44' W 095°17'1195391182.0
2015-May-20 14:33N 33°46' W 118°13'11951198.9
2015-May-20 13:33N 29°44' W 095°17'0 0.0
2015-May-20 12:33N 29°44' W 095°17'0 0.0
2015-May-20 11:33N 29°44' W 095°17'0 0.0
2015-May-20 10:15N 29°44' W 095°17'119513405.0
2015-May-20 10:10N 33°46' W 118°13'11951973.9
2015-May-20 09:33N 29°44' W 095°17'119545776.6
2015-May-20 09:32N 33°46' W 118°13'11951201.3
2015-May-20 08:32N 29°44' W 095°17'11957725.4
2015-May-20 08:23N 33°46' W 118°13'0 0.0
2015-May-20 07:33N 33°46' W 118°13'119589646.6
2015-May-20 07:33N 29°44' W 095°17'0 0.0
2015-May-20 06:33N 29°44' W 095°17'1195331001.5
2015-May-20 06:33N 33°46' W 118°13'11951199.3
2015-May-20 05:33N 29°44' W 095°17'1195331002.0
2015-May-20 05:33N 33°46' W 118°13'11951209.7
2015-May-20 04:33N 29°44' W 095°17'119597795.9
2015-May-20 04:33N 33°46' W 118°13'11951210.4
2015-May-20 03:33N 29°44' W 095°17'119595622.7
2015-May-20 03:33N 33°46' W 118°13'11951210.1
2015-May-20 02:33N 29°44' W 095°17'119597795.9
2015-May-20 02:33N 33°46' W 118°13'11951210.4
2015-May-20 01:33N 29°44' W 095°17'119540981.3
2015-May-20 01:32N 33°46' W 118°13'11951231.2
2015-May-20 00:33N 29°44' W 095°17'119595622.7
2015-May-20 00:33N 33°46' W 118°13'0 0.0
2015-May-19 23:33N 33°46' W 118°13'1195717168.0
2015-May-19 23:33N 29°44' W 095°17'1 0.9
2015-May-19 22:33N 29°44' W 095°16'119623277.2
2015-May-19 22:30N 33°46' W 118°13'12011265.9
2015-May-19 21:33N 29°45' W 095°10'12011080789.2
2015-May-19 21:33N 33°46' W 118°13'0 0.0
2015-May-19 20:33N 33°46' W 118°13'1203618942.7
2015-May-19 20:33N 29°45' W 095°06'0 0.0
2015-May-19 19:33N 29°45' W 095°06'0 0.0
2015-May-19 18:32N 29°45' W 095°06'0 0.0
2015-May-19 17:33N 29°45' W 095°06'12035746.2
2015-May-19 17:21N 33°46' W 118°13'12041521.8
2015-May-19 16:33N 29°45' W 095°06'12041444205.6
2015-May-19 16:33N 33°46' W 118°13'0 0.0
2015-May-19 15:33N 33°46' W 118°13'1204722102.8
2015-May-19 15:33N 29°45' W 095°06'0 0.0
2015-May-19 14:33N 29°45' W 095°06'12031444199.6
2015-May-19 14:33N 33°46' W 118°13'0 0.0
2015-May-19 13:33N 33°46' W 118°13'1204160467.3
2015-May-19 13:33N 29°45' W 095°06'0 0.0
2015-May-19 12:33N 29°45' W 095°06'12041083154.2
2015-May-19 12:33N 33°46' W 118°13'12041205.3
2015-May-19 11:33N 29°46' W 095°06'12041083570.2
2015-May-19 11:33N 33°46' W 118°13'12031205.0
2015-May-19 10:33N 29°47' W 095°06'1203866396.3
2015-May-19 10:33N 33°46' W 118°13'12031204.3
2015-May-19 09:33N 29°47' W 095°06'12032165987.4
2015-May-19 09:33N 33°46' W 118°13'12031204.7
2015-May-19 08:33N 29°47' W 095°06'120346084.7
2015-May-19 08:32N 33°46' W 118°13'12031235.6
2015-May-19 07:33N 29°47' W 095°06'1203333228.8
2015-May-19 07:33N 33°46' W 118°13'12031207.4
2015-May-19 06:33N 29°47' W 095°06'120380222.1
2015-May-19 06:33N 33°46' W 118°13'12031221.7
2015-May-19 05:33N 29°47' W 095°06'1203309431.9
2015-May-19 05:33N 33°46' W 118°13'12031191.4
2015-May-19 04:33N 29°47' W 095°06'1203100743.2
2015-May-19 04:32N 33°46' W 118°13'12031235.2
2015-May-19 03:33N 29°47' W 095°06'1203309428.5
2015-May-19 03:33N 33°46' W 118°13'12041209.2
2015-May-19 02:33N 29°45' W 095°06'12046518.7
2015-May-19 02:22N 33°46' W 118°13'12041471.6
2015-May-19 01:33N 29°45' W 095°06'1204180581.8
2015-May-19 01:33N 33°46' W 118°13'12041215.0
2015-May-19 00:33N 29°45' W 095°06'12041083490.8
2015-May-19 00:33N 33°46' W 118°13'12041205.2
2015-May-18 23:33N 29°45' W 095°06'1204309568.8
2015-May-18 23:33N 33°46' W 118°13'12041208.9
2015-May-18 22:33N 29°45' W 095°06'1204123827.5
2015-May-18 22:33N 33°46' W 118°13'12041215.0
2015-May-18 21:33N 29°45' W 095°06'1204333381.8
2015-May-18 21:33N 33°46' W 118°13'12041208.6
2015-May-18 20:33N 29°45' W 095°06'1204333381.8
2015-May-18 20:33N 33°46' W 118°13'12041208.2
2015-May-18 19:33N 29°45' W 095°06'12041444654.4
2015-May-18 19:33N 33°46' W 118°13'12041204.9
2015-May-18 18:33N 29°45' W 095°06'12041444654.4
2015-May-18 18:33N 33°46' W 118°13'12041204.5
2015-May-18 17:33N 29°45' W 095°06'120469902.6
2015-May-18 17:32N 33°46' W 118°13'12021223.6
2015-May-18 16:33N 29°44' W 095°08'120281661.1
2015-May-18 16:33N 33°46' W 118°13'12021220.2
2015-May-18 15:33N 29°44' W 095°08'12021442675.1
2015-May-18 15:33N 33°46' W 118°13'12021203.2
2015-May-18 14:33N 29°44' W 095°08'1202127295.1
2015-May-18 14:33N 33°46' W 118°13'12021210.6
2015-May-18 13:33N 29°44' W 095°08'12028761.2
2015-May-18 13:25N 33°46' W 118°13'12021397.0
2015-May-18 12:33N 29°44' W 095°08'120210504.9
2015-May-18 12:27N 33°46' W 118°13'12021358.5
2015-May-18 11:33N 29°44' W 095°08'0 0.0
2015-May-18 10:33N 29°44' W 095°08'120281660.9
2015-May-18 10:33N 33°46' W 118°13'12011218.5
2015-May-18 09:33N 29°45' W 095°10'1201332454.8
2015-May-18 09:33N 33°46' W 118°13'11991203.1
2015-May-18 08:33N 29°44' W 095°12'119910981.3
2015-May-18 08:27N 33°46' W 118°13'11991345.7
2015-May-18 07:33N 29°44' W 095°12'11992949.9
2015-May-18 07:09N 33°46' W 118°13'11992020.4
2015-May-18 06:33N 29°44' W 095°12'119926315.0
2015-May-18 06:31N 33°46' W 118°13'11991256.0
2015-May-18 05:33N 29°44' W 095°12'1199863132.8
2015-May-18 05:33N 33°46' W 118°13'11991200.1
2015-May-18 04:33N 29°44' W 095°12'0 0.0
2015-May-18 03:33N 29°44' W 095°12'11993977.6
2015-May-18 03:15N 33°46' W 118°13'11991715.3
2015-May-18 02:33N 29°44' W 095°12'119930180.1
2015-May-18 02:31N 33°46' W 118°13'12021251.6
2015-May-18 01:33N 29°44' W 095°09'12025815.7
2015-May-18 01:21N 33°46' W 118°13'12041517.8
2015-May-18 00:33N 29°45' W 095°06'12041444899.3
2015-May-18 00:33N 33°46' W 118°13'12041205.4
2015-May-17 23:33N 29°45' W 095°06'  
Track history (hours):
 
Tides and Currents Weather Stations Pressure Air Temp Water Temp Dewpoint Dewpoint Depression Visibility Wind Speed Wind Dir Waves Ship Positions

Patcona II

Owner: Connolly-Pacific Co, long beach, CA. More information available from US FCC via Universal Licensing System and Coast Guard Vessel Documentation Center.

Last reported at 2015-May-27 23:33 UTC. Time now 2015-May-28 00:01 UTC.
Position N 33°46' W 118°13'.

; draft 9 m.

Type: Towing. MMSI: 366988960.

Date/timePositionNaut miles runAvg speedWind from/ knotsBaromVisibWave heightAir tempDewpointWater temp
2015-May-27 23:33N 33°46' W 118°13'12021081776.4
2015-May-27 23:33N 29°44' W 095°09'12021203.6
2015-May-27 22:34N 33°46' W 118°13'1200864073.0
2015-May-27 22:33N 29°45' W 095°11'12001201.4
2015-May-27 21:33N 33°46' W 118°13'12002160182.4
2015-May-27 21:33N 29°45' W 095°11'12001201.1
2015-May-27 20:34N 33°46' W 118°13'1200864073.0
2015-May-27 20:33N 29°45' W 095°11'12001201.4
2015-May-27 19:33N 33°46' W 118°13'12001440121.6
2015-May-27 19:33N 29°45' W 095°11'12001201.1
2015-May-27 18:33N 33°46' W 118°13'12001080091.2
2015-May-27 18:33N 29°45' W 095°11'12001201.4
2015-May-27 17:33N 33°46' W 118°13'12001440121.6
2015-May-27 17:33N 29°45' W 095°11'12001201.4
2015-May-27 16:34N 33°46' W 118°13'12001080091.2
2015-May-27 16:33N 29°45' W 095°11'12001201.4
2015-May-27 15:34N 33°46' W 118°13'12021081951.3
2015-May-27 15:33N 29°44' W 095°08'12021203.2
2015-May-27 14:33N 33°46' W 118°13'1203309427.6
2015-May-27 14:33N 29°47' W 095°06'0 0.0
2015-May-27 13:34N 29°47' W 095°06'1203393825.9
2015-May-27 13:33N 33°46' W 118°13'0 0.0
2015-May-27 12:33N 33°46' W 118°13'12036674.8
2015-May-27 12:23N 29°47' W 095°06'12031463.0
2015-May-27 11:33N 33°46' W 118°13'120343319.7
2015-May-27 11:32N 29°47' W 095°06'12031237.7
2015-May-27 10:33N 33°46' W 118°13'120315471.3
2015-May-27 10:29N 29°47' W 095°06'12031293.1
2015-May-27 09:33N 33°46' W 118°13'120361887.8
2015-May-27 09:32N 29°46' W 095°06'12031241.3
2015-May-27 08:33N 33°46' W 118°13'120436122.7
2015-May-27 08:31N 29°45' W 095°06'12041246.0
2015-May-27 07:34N 33°46' W 118°13'120435824.4
2015-May-27 07:31N 29°45' W 095°06'12041245.6
2015-May-27 06:33N 33°46' W 118°13'120435824.2
2015-May-27 06:31N 29°45' W 095°06'12041242.8
2015-May-27 05:33N 33°46' W 118°13'120439051.5
2015-May-27 05:31N 29°45' W 095°06'12041235.3
2015-May-27 04:33N 33°46' W 118°13'120415762.7
2015-May-27 04:28N 29°45' W 095°06'12041315.1
2015-May-27 03:33N 33°46' W 118°13'120435530.4
2015-May-27 03:31N 29°45' W 095°06'12041246.7
2015-May-27 02:34N 33°46' W 118°13'120434677.9
2015-May-27 02:31N 29°45' W 095°06'12041247.4
2015-May-27 01:34N 33°46' W 118°13'120414401.1
2015-May-27 01:28N 29°45' W 095°06'12041313.6
2015-May-27 00:33N 33°46' W 118°13'120434957.6
2015-May-27 00:31N 29°45' W 095°06'12041247.4
2015-May-26 23:34N 33°46' W 118°13'12046528.2
2015-May-26 23:22N 29°45' W 095°06'2 2.1
2015-May-26 22:33N 29°44' W 095°08'12031082488.8
2015-May-26 22:33N 33°46' W 118°13'0 0.0
2015-May-26 21:33N 33°46' W 118°13'0 0.0
2015-May-26 20:34N 33°46' W 118°13'0 0.0
2015-May-26 19:33N 33°46' W 118°13'0 0.0
2015-May-26 18:33N 33°46' W 118°13'0 0.0
2015-May-26 17:33N 33°46' W 118°13'0 0.0
2015-May-26 16:33N 33°46' W 118°13'0 0.0
2015-May-26 15:33N 33°46' W 118°13'0 0.0
2015-May-26 14:33N 33°46' W 118°13'0 0.0
2015-May-26 13:33N 33°46' W 118°13'1202393498.2
2015-May-26 13:33N 29°44' W 095°08'12021202.7
2015-May-26 12:33N 33°46' W 118°13'120328297.7
2015-May-26 12:31N 29°44' W 095°08'12031259.7
2015-May-26 11:33N 33°46' W 118°13'120325771.2
2015-May-26 11:31N 29°44' W 095°08'12031258.2
2015-May-26 10:33N 33°46' W 118°13'120327229.8
2015-May-26 10:31N 29°44' W 095°08'12031261.9
2015-May-26 09:34N 33°46' W 118°13'120326239.7
2015-May-26 09:31N 29°44' W 095°08'12031260.1
2015-May-26 08:33N 33°46' W 118°13'120312405.5
2015-May-26 08:28N 29°44' W 095°08'12031331.8
2015-May-26 07:33N 33°46' W 118°13'120312513.1
2015-May-26 07:28N 29°44' W 095°08'12031314.4
2015-May-26 06:33N 33°46' W 118°13'12038908.5
2015-May-26 06:25N 29°44' W 095°08'12031390.4
2015-May-26 05:33N 33°46' W 118°13'12038835.8
2015-May-26 05:25N 29°44' W 095°08'12031410.7
2015-May-26 04:34N 33°46' W 118°13'120325925.3
2015-May-26 04:31N 29°44' W 095°08'12031260.8
2015-May-26 03:33N 33°46' W 118°13'12034859.2
2015-May-26 03:19N 29°44' W 095°08'12031587.1
2015-May-26 02:33N 33°46' W 118°13'120313199.8
2015-May-26 02:28N 29°44' W 095°08'0 0.0
2015-May-26 01:28N 29°44' W 095°08'120328483.8
2015-May-26 01:25N 33°46' W 118°13'12031395.3
2015-May-26 00:33N 29°44' W 095°08'12035235.5
2015-May-26 00:20N 33°46' W 118°13'0 0.0
2015-May-25 23:33N 33°46' W 118°13'120315361.2
2015-May-25 23:28N 29°47' W 095°06'12031313.5
2015-May-25 22:33N 33°46' W 118°13'120334934.5
2015-May-25 22:31N 29°47' W 095°06'4 4.4
2015-May-25 21:33N 29°45' W 095°11'120026185.4
2015-May-25 21:31N 33°46' W 118°13'11981255.7
2015-May-25 20:33N 29°44' W 095°13'119867393.3
2015-May-25 20:32N 33°46' W 118°13'0 0.0
2015-May-25 19:33N 33°46' W 118°13'12011081232.6
2015-May-25 19:33N 29°44' W 095°09'4 3.6
2015-May-25 18:32N 29°47' W 095°06'1203254816.6
2015-May-25 18:32N 33°46' W 118°13'12031224.8
2015-May-25 17:33N 29°46' W 095°06'120338336.8
2015-May-25 17:31N 33°46' W 118°13'0 0.0
2015-May-25 16:33N 33°46' W 118°13'120384941.0
2015-May-25 16:33N 29°47' W 095°06'12031210.7
2015-May-25 15:33N 33°46' W 118°13'120335801.3
2015-May-25 15:31N 29°47' W 095°06'0 0.0
2015-May-25 14:28N 29°47' W 095°06'1203270748.0
2015-May-25 14:28N 33°46' W 118°13'0 0.0
2015-May-25 13:33N 33°46' W 118°13'120344203.8
2015-May-25 13:31N 29°47' W 095°06'1 0.9
2015-May-25 12:33N 29°46' W 095°05'120462819.6
2015-May-25 12:32N 33°46' W 118°13'12091233.8
2015-May-25 11:34N 29°42' W 095°00'12097367.4
2015-May-25 11:24N 33°46' W 118°13'12151453.4
2015-May-25 10:34N 29°36' W 094°56'12157781.7
2015-May-25 10:24N 33°46' W 118°13'0 0.0
2015-May-25 09:33N 33°46' W 118°13'0 0.0
2015-May-25 08:33N 33°46' W 118°13'122614757.5
2015-May-25 08:28N 29°22' W 094°48'12261340.8
2015-May-25 07:33N 33°46' W 118°13'0 0.0
2015-May-25 06:34N 33°46' W 118°13'0 0.0
2015-May-25 05:33N 33°46' W 118°13'0 0.0
2015-May-25 04:33N 33°46' W 118°13'0 0.0
2015-May-25 03:33N 33°46' W 118°13'0 0.0
2015-May-25 02:33N 33°46' W 118°13'0 0.0
2015-May-25 01:33N 33°46' W 118°13'0 0.0
2015-May-25 00:34N 33°46' W 118°13'0 0.0
2015-May-24 23:33N 33°46' W 118°13'0 0.0
2015-May-24 22:34N 33°46' W 118°13'0 0.0
2015-May-24 21:33N 33°46' W 118°13'0 0.0
2015-May-24 20:33N 33°46' W 118°13'0 0.0
2015-May-24 17:34N 33°46' W 118°13'122612358.5
2015-May-24 17:28N 29°23' W 094°48'12261355.9
2015-May-24 16:33N 33°46' W 118°13'1221169126.5
2015-May-24 16:33N 29°28' W 094°51'7 7.2
2015-May-24 15:33N 29°34' W 094°55'8 7.7
2015-May-24 14:33N 29°41' W 094°59'12115858.9
2015-May-24 14:21N 33°46' W 118°13'12051513.6
2015-May-24 13:33N 29°46' W 095°05'12055393.7
2015-May-24 13:20N 33°46' W 118°13'12051529.0
2015-May-24 12:33N 29°46' W 095°05'12051219.8
2015-May-24 11:33N 33°46' W 118°13'1205166780.0
2015-May-24 11:33N 29°46' W 095°05'0 0.3
2015-May-24 10:33N 29°46' W 095°05'2 1.9
2015-May-24 09:33N 29°45' W 095°06'0 0.0
2015-May-24 08:33N 29°45' W 095°06'120310266.8
2015-May-24 08:26N 33°46' W 118°13'12031363.7
2015-May-24 07:33N 29°45' W 095°06'120328133.7
2015-May-24 07:31N 33°46' W 118°13'12031257.6
2015-May-24 06:33N 29°45' W 095°06'12034792.7
2015-May-24 06:18N 33°46' W 118°13'12031606.4
2015-May-24 05:33N 29°45' W 095°06'12031083143.6
2015-May-24 05:33N 33°46' W 118°13'12031204.8
2015-May-24 04:33N 29°45' W 095°06'12033155.6
2015-May-24 04:11N 33°46' W 118°13'0 0.0
2015-May-24 03:33N 33°46' W 118°13'1203722098.7
2015-May-24 03:33N 29°45' W 095°06'12031205.5
2015-May-24 02:33N 33°46' W 118°13'1203288839.5
2015-May-24 02:33N 29°45' W 095°06'0 0.0
2015-May-24 01:33N 29°45' W 095°06'1203123787.8
2015-May-24 01:33N 33°46' W 118°13'0 0.0
2015-May-24 00:33N 33°46' W 118°13'120376010.3
2015-May-24 00:32N 29°45' W 095°06'12031226.3
2015-May-23 23:34N 33°46' W 118°13'1203160466.4
2015-May-23 23:33N 29°45' W 095°06'12031212.6
2015-May-23 22:34N 33°46' W 118°13'1203722098.7
2015-May-23 22:33N 29°45' W 095°06'12031205.5
2015-May-23 21:34N 33°46' W 118°13'120429675.7
2015-May-23 21:31N 29°45' W 095°06'12041254.4
2015-May-23 20:34N 33°46' W 118°13'1202618297.7
2015-May-23 20:33N 29°44' W 095°08'12021204.6
2015-May-23 19:34N 33°46' W 118°13'1202721381.4
2015-May-23 19:33N 29°44' W 095°08'12021204.3
2015-May-23 18:34N 33°46' W 118°13'1202618326.0
2015-May-23 18:33N 29°44' W 095°08'12021204.3
2015-May-23 17:33N 33°46' W 118°13'1202432828.9
2015-May-23 17:33N 29°44' W 095°08'12021206.0
2015-May-23 16:34N 33°46' W 118°13'1202618324.4
2015-May-23 16:33N 29°44' W 095°08'12021204.6
2015-May-23 15:34N 33°46' W 118°13'1202393479.1
2015-May-23 15:33N 29°44' W 095°08'12021206.0
2015-May-23 14:34N 33°46' W 118°13'1202393479.1
2015-May-23 14:33N 29°44' W 095°08'12021202.6
2015-May-23 13:33N 33°46' W 118°13'12022164135.3
2015-May-23 13:33N 29°44' W 095°08'12021206.3
2015-May-23 12:34N 33°46' W 118°13'1202360689.2
2015-May-23 12:33N 29°44' W 095°08'12021206.0
2015-May-23 11:33N 33°46' W 118°13'1202480919.0
2015-May-23 11:33N 29°44' W 095°08'0 0.0
2015-May-23 10:33N 29°44' W 095°08'120214772.3
2015-May-23 10:28N 33°46' W 118°13'12031312.7
2015-May-23 09:33N 29°44' W 095°07'120313494.6
2015-May-23 09:28N 33°46' W 118°13'0 0.0
2015-May-23 08:33N 33°46' W 118°13'1204393999.5
2015-May-23 08:32N 29°45' W 095°06'12041228.1
2015-May-23 07:34N 33°46' W 118°13'120459369.8
2015-May-23 07:32N 29°45' W 095°06'12041228.5
2015-May-23 06:33N 33°46' W 118°13'120461042.2
2015-May-23 06:32N 29°45' W 095°06'12041228.5
2015-May-23 05:34N 33°46' W 118°13'120459369.8
2015-May-23 05:32N 29°45' W 095°06'12041228.5
2015-May-23 04:33N 33°46' W 118°13'120457786.6
2015-May-23 04:32N 29°45' W 095°06'12041229.5
2015-May-23 03:33N 33°46' W 118°13'120460194.4
2015-May-23 03:32N 29°45' W 095°06'12041229.2
2015-May-23 02:34N 33°46' W 118°13'120457026.2
2015-May-23 02:32N 29°45' W 095°06'12041229.2
2015-May-23 01:33N 33°46' W 118°13'120460194.4
2015-May-23 01:32N 29°45' W 095°06'1 1.1
2015-May-23 00:33N 29°44' W 095°07'12031203.1
2015-May-22 23:33N 33°46' W 118°13'120412862.9
2015-May-22 23:28N 29°45' W 095°06'12041320.4
2015-May-22 22:33N 33°46' W 118°13'12047796.3
2015-May-22 22:24N 29°45' W 095°06'12041433.9
2015-May-22 21:34N 33°46' W 118°13'12045962.6
2015-May-22 21:21N 29°45' W 095°06'12041508.8
2015-May-22 20:34N 33°46' W 118°13'120420840.3
2015-May-22 20:30N 29°45' W 095°06'12041277.6
2015-May-22 19:33N 33°46' W 118°13'1204619122.1
2015-May-22 19:33N 29°45' W 095°06'12041206.5
2015-May-22 18:34N 33°46' W 118°13'1202618313.4
2015-May-22 18:33N 29°44' W 095°08'12021204.6
2015-May-22 17:34N 33°46' W 118°13'1202618313.4
2015-May-22 17:33N 29°44' W 095°08'12021204.6
2015-May-22 16:34N 33°46' W 118°13'0 0.0
2015-May-22 15:34N 33°46' W 118°13'0 0.0
2015-May-22 14:34N 33°46' W 118°13'0 0.0
2015-May-22 13:32N 33°46' W 118°13'0 0.0
2015-May-22 12:31N 33°46' W 118°13'0 0.0
2015-May-22 11:33N 33°46' W 118°13'12024957.8
2015-May-22 11:19N 29°44' W 095°08'12021587.2
2015-May-22 10:33N 33°46' W 118°13'12041444915.8
2015-May-22 10:33N 29°45' W 095°06'0 0.0
2015-May-22 09:33N 29°45' W 095°06'120450404.0
2015-May-22 09:32N 33°46' W 118°13'12041240.6
2015-May-22 08:33N 29°45' W 095°06'120492228.8
2015-May-22 08:32N 33°46' W 118°13'0 0.0
2015-May-22 07:34N 33°46' W 118°13'120467730.7
2015-May-22 07:32N 29°45' W 095°06'1 1.1
2015-May-22 06:33N 29°46' W 095°05'1204255000.7
2015-May-22 06:33N 33°46' W 118°13'0 0.0
2015-May-22 05:33N 33°46' W 118°13'1203196907.1
2015-May-22 05:32N 29°47' W 095°06'12031224.4
2015-May-22 04:33N 33°46' W 118°13'120368761.3
2015-May-22 04:32N 29°47' W 095°06'12031217.9
2015-May-22 03:33N 33°46' W 118°13'120392169.3
2015-May-22 03:32N 29°47' W 095°06'12031225.8
2015-May-22 02:33N 33°46' W 118°13'120364656.1
2015-May-22 02:32N 29°47' W 095°06'12031233.1
2015-May-22 01:33N 33°46' W 118°13'120352828.7
2015-May-22 01:32N 29°47' W 095°06'12031227.9
2015-May-22 00:33N 33°46' W 118°13'120317122.4
2015-May-22 00:29N 29°47' W 095°06'0 0.0
2015-May-21 23:32N 29°47' W 095°06'1203866391.4
2015-May-21 23:32N 33°46' W 118°13'0 0.0
2015-May-21 22:33N 33°46' W 118°13'120356259.4
2015-May-21 22:32N 29°47' W 095°06'12031226.1
2015-May-21 21:33N 33°46' W 118°13'120361885.1
2015-May-21 21:32N 29°47' W 095°06'12031234.2
2015-May-21 20:34N 33°46' W 118°13'120348133.5
2015-May-21 20:32N 29°47' W 095°06'12031230.7
2015-May-21 19:33N 33°46' W 118°13'120316725.8
2015-May-21 19:29N 29°47' W 095°06'12031297.0
2015-May-21 18:33N 33°46' W 118°13'120327074.8
2015-May-21 18:31N 29°47' W 095°06'12031262.6
2015-May-21 17:34N 33°46' W 118°13'12038220.1
2015-May-21 17:25N 29°47' W 095°06'12031405.1
2015-May-21 16:33N 33°46' W 118°13'120321131.4
2015-May-21 16:30N 29°47' W 095°06'12031276.4
2015-May-21 15:33N 33°46' W 118°13'1203149377.4
2015-May-21 15:33N 29°47' W 095°06'0 0.0
2015-May-21 14:30N 29°47' W 095°06'120322562.2
2015-May-21 14:27N 33°46' W 118°13'12031358.0
2015-May-21 13:34N 29°47' W 095°06'0 0.0
2015-May-21 12:33N 29°47' W 095°06'0 0.1
2015-May-21 11:33N 29°47' W 095°06'2 1.8
2015-May-21 10:32N 29°45' W 095°06'12043965.8
2015-May-21 10:14N 33°46' W 118°13'0 0.0
2015-May-21 09:29N 33°46' W 118°13'120434677.4
2015-May-21 09:27N 29°45' W 095°06'0 0.0
2015-May-21 08:33N 29°45' W 095°06'1204160542.9
2015-May-21 08:32N 33°46' W 118°13'0 0.0
2015-May-21 07:33N 33°46' W 118°13'1204288978.8
2015-May-21 07:33N 29°45' W 095°06'12041222.8
2015-May-21 06:34N 33°46' W 118°13'120476046.7
2015-May-21 06:33N 29°45' W 095°06'12041209.8
2015-May-21 05:33N 33°46' W 118°13'1204288977.1
2015-May-21 05:33N 29°45' W 095°06'12041209.1
2015-May-21 04:33N 33°46' W 118°13'1204361221.4
2015-May-21 04:33N 29°45' W 095°06'12041218.6
2015-May-21 03:33N 33°46' W 118°13'120488462.8
2015-May-21 03:33N 29°45' W 095°06'12041223.8
2015-May-21 02:34N 33°46' W 118°13'120473469.1
2015-May-21 02:33N 29°45' W 095°06'0 0.0
2015-May-21 01:33N 29°45' W 095°06'0 0.0
2015-May-21 00:33N 29°45' W 095°06'0 0.0
2015-May-20 23:33N 29°45' W 095°06'1204160544.3
2015-May-20 23:33N 33°46' W 118°13'0 0.0
2015-May-20 22:33N 33°46' W 118°13'12044909.0
2015-May-20 22:18N 29°45' W 095°06'12041595.4
2015-May-20 21:33N 33°46' W 118°13'1204188463.4
2015-May-20 21:32N 29°45' W 095°06'12041212.5
2015-May-20 20:33N 33°46' W 118°13'120434956.9
2015-May-20 20:31N 29°45' W 095°06'12041243.1
2015-May-20 19:33N 33°46' W 118°13'1204333435.3
2015-May-20 19:32N 29°45' W 095°06'0 0.0
2015-May-20 18:33N 29°45' W 095°06'1204139826.5
2015-May-20 18:33N 33°46' W 118°13'12021215.8
2015-May-20 17:33N 29°44' W 095°09'1202105538.4
2015-May-20 17:33N 33°46' W 118°13'11961209.5
2015-May-20 16:33N 29°44' W 095°16'11964304713.4
2015-May-20 16:33N 33°46' W 118°13'0 0.0
2015-May-20 15:34N 33°46' W 118°13'1195204905.7
2015-May-20 15:33N 29°44' W 095°17'0 0.0
2015-May-20 14:33N 29°44' W 095°17'1195391182.0
2015-May-20 14:33N 33°46' W 118°13'11951198.9
2015-May-20 13:33N 29°44' W 095°17'0 0.0
2015-May-20 12:33N 29°44' W 095°17'0 0.0
2015-May-20 11:33N 29°44' W 095°17'0 0.0
2015-May-20 10:15N 29°44' W 095°17'119513405.0
2015-May-20 10:10N 33°46' W 118°13'11951973.9
2015-May-20 09:33N 29°44' W 095°17'119545776.6
2015-May-20 09:32N 33°46' W 118°13'11951201.3
2015-May-20 08:32N 29°44' W 095°17'11957725.4
2015-May-20 08:23N 33°46' W 118°13'0 0.0
2015-May-20 07:33N 33°46' W 118°13'119589646.6
2015-May-20 07:33N 29°44' W 095°17'0 0.0
2015-May-20 06:33N 29°44' W 095°17'1195331001.5
2015-May-20 06:33N 33°46' W 118°13'11951199.3
2015-May-20 05:33N 29°44' W 095°17'1195331002.0
2015-May-20 05:33N 33°46' W 118°13'11951209.7
2015-May-20 04:33N 29°44' W 095°17'119597795.9
2015-May-20 04:33N 33°46' W 118°13'11951210.4
2015-May-20 03:33N 29°44' W 095°17'119595622.7
2015-May-20 03:33N 33°46' W 118°13'11951210.1
2015-May-20 02:33N 29°44' W 095°17'119597795.9
2015-May-20 02:33N 33°46' W 118°13'11951210.4
2015-May-20 01:33N 29°44' W 095°17'119540981.3
2015-May-20 01:32N 33°46' W 118°13'11951231.2
2015-May-20 00:33N 29°44' W 095°17'119595622.7
2015-May-20 00:33N 33°46' W 118°13'0 0.0
2015-May-19 23:33N 33°46' W 118°13'1195717168.0
2015-May-19 23:33N 29°44' W 095°17'1 0.9
2015-May-19 22:33N 29°44' W 095°16'119623277.2
2015-May-19 22:30N 33°46' W 118°13'12011265.9
2015-May-19 21:33N 29°45' W 095°10'12011080789.2
2015-May-19 21:33N 33°46' W 118°13'0 0.0
2015-May-19 20:33N 33°46' W 118°13'1203618942.7
2015-May-19 20:33N 29°45' W 095°06'0 0.0
2015-May-19 19:33N 29°45' W 095°06'0 0.0
2015-May-19 18:32N 29°45' W 095°06'0 0.0
2015-May-19 17:33N 29°45' W 095°06'12035746.2
2015-May-19 17:21N 33°46' W 118°13'12041521.8
2015-May-19 16:33N 29°45' W 095°06'12041444205.6
2015-May-19 16:33N 33°46' W 118°13'0 0.0
2015-May-19 15:33N 33°46' W 118°13'1204722102.8
2015-May-19 15:33N 29°45' W 095°06'0 0.0
2015-May-19 14:33N 29°45' W 095°06'12031444199.6
2015-May-19 14:33N 33°46' W 118°13'0 0.0
2015-May-19 13:33N 33°46' W 118°13'1204160467.3
2015-May-19 13:33N 29°45' W 095°06'0 0.0
2015-May-19 12:33N 29°45' W 095°06'12041083154.2
2015-May-19 12:33N 33°46' W 118°13'12041205.3
2015-May-19 11:33N 29°46' W 095°06'12041083570.2
2015-May-19 11:33N 33°46' W 118°13'12031205.0
2015-May-19 10:33N 29°47' W 095°06'1203866396.3
2015-May-19 10:33N 33°46' W 118°13'12031204.3
2015-May-19 09:33N 29°47' W 095°06'12032165987.4
2015-May-19 09:33N 33°46' W 118°13'12031204.7
2015-May-19 08:33N 29°47' W 095°06'120346084.7
2015-May-19 08:32N 33°46' W 118°13'12031235.6
2015-May-19 07:33N 29°47' W 095°06'1203333228.8
2015-May-19 07:33N 33°46' W 118°13'12031207.4
2015-May-19 06:33N 29°47' W 095°06'120380222.1
2015-May-19 06:33N 33°46' W 118°13'12031221.7
2015-May-19 05:33N 29°47' W 095°06'1203309431.9
2015-May-19 05:33N 33°46' W 118°13'12031191.4
2015-May-19 04:33N 29°47' W 095°06'1203100743.2
2015-May-19 04:32N 33°46' W 118°13'12031235.2
2015-May-19 03:33N 29°47' W 095°06'1203309428.5
2015-May-19 03:33N 33°46' W 118°13'12041209.2
2015-May-19 02:33N 29°45' W 095°06'12046518.7
2015-May-19 02:22N 33°46' W 118°13'12041471.6
2015-May-19 01:33N 29°45' W 095°06'1204180581.8
2015-May-19 01:33N 33°46' W 118°13'12041215.0
2015-May-19 00:33N 29°45' W 095°06'12041083490.8
2015-May-19 00:33N 33°46' W 118°13'12041205.2
2015-May-18 23:33N 29°45' W 095°06'1204309568.8
2015-May-18 23:33N 33°46' W 118°13'12041208.9
2015-May-18 22:33N 29°45' W 095°06'1204123827.5
2015-May-18 22:33N 33°46' W 118°13'12041215.0
2015-May-18 21:33N 29°45' W 095°06'1204333381.8
2015-May-18 21:33N 33°46' W 118°13'12041208.6
2015-May-18 20:33N 29°45' W 095°06'1204333381.8
2015-May-18 20:33N 33°46' W 118°13'12041208.2
2015-May-18 19:33N 29°45' W 095°06'12041444654.4
2015-May-18 19:33N 33°46' W 118°13'12041204.9
2015-May-18 18:33N 29°45' W 095°06'12041444654.4
2015-May-18 18:33N 33°46' W 118°13'12041204.5
2015-May-18 17:33N 29°45' W 095°06'120469902.6
2015-May-18 17:32N 33°46' W 118°13'12021223.6
2015-May-18 16:33N 29°44' W 095°08'120281661.1
2015-May-18 16:33N 33°46' W 118°13'12021220.2
2015-May-18 15:33N 29°44' W 095°08'12021442675.1
2015-May-18 15:33N 33°46' W 118°13'12021203.2
2015-May-18 14:33N 29°44' W 095°08'1202127295.1
2015-May-18 14:33N 33°46' W 118°13'12021210.6
2015-May-18 13:33N 29°44' W 095°08'12028761.2
2015-May-18 13:25N 33°46' W 118°13'12021397.0
2015-May-18 12:33N 29°44' W 095°08'120210504.9
2015-May-18 12:27N 33°46' W 118°13'12021358.5
2015-May-18 11:33N 29°44' W 095°08'0 0.0
2015-May-18 10:33N 29°44' W 095°08'120281660.9
2015-May-18 10:33N 33°46' W 118°13'12011218.5
2015-May-18 09:33N 29°45' W 095°10'1201332454.8
2015-May-18 09:33N 33°46' W 118°13'11991203.1
2015-May-18 08:33N 29°44' W 095°12'119910981.3
2015-May-18 08:27N 33°46' W 118°13'11991345.7
2015-May-18 07:33N 29°44' W 095°12'11992949.9
2015-May-18 07:09N 33°46' W 118°13'11992020.4
2015-May-18 06:33N 29°44' W 095°12'119926315.0
2015-May-18 06:31N 33°46' W 118°13'11991256.0
2015-May-18 05:33N 29°44' W 095°12'1199863132.8
2015-May-18 05:33N 33°46' W 118°13'11991200.1
2015-May-18 04:33N 29°44' W 095°12'0 0.0
2015-May-18 03:33N 29°44' W 095°12'11993977.6
2015-May-18 03:15N 33°46' W 118°13'11991715.3
2015-May-18 02:33N 29°44' W 095°12'119930180.1
2015-May-18 02:31N 33°46' W 118°13'12021251.6
2015-May-18 01:33N 29°44' W 095°09'12025815.7
2015-May-18 01:21N 33°46' W 118°13'12041517.8
2015-May-18 00:33N 29°45' W 095°06'12041444899.3
2015-May-18 00:33N 33°46' W 118°13'12041205.4
2015-May-17 23:33N 29°45' W 095°06'  

Dump ship's entire track history